Time;durP1;ratioP1;P1;durP2;ratioP2;P2;SDS_P1;SDS_P2;PMS_P1;PMS_P2;Temp;Humidity;BMP_temperature;BMP_pressure;BME280_temperature;BME280_humidity;BME280_pressure;Samples;Min_cycle;Max_cycle;Signal;HPM_P1;HPM_P2
2021/11/07 00:01:55;;;;;;;10.68;5.60;;;11.60;92.90;;;;;;5065443;28;20439;-62
2021/11/07 00:04:43;;;;;;;8.23;5.25;;;11.60;92.90;;;;;;5053252;28;20035;-61
2021/11/07 00:07:37;;;;;;;8.23;5.68;;;11.60;92.90;;;;;;5052509;28;20095;-62
2021/11/07 00:10:34;;;;;;;9.70;5.35;;;11.60;93.00;;;;;;5052639;28;20114;-62
2021/11/07 00:13:24;;;;;;;7.75;4.88;;;11.50;92.90;;;;;;5052211;28;20094;-62
2021/11/07 00:16:14;;;;;;;8.13;5.15;;;11.50;93.00;;;;;;5064169;28;20535;-62
2021/11/07 00:19:14;;;;;;;7.55;5.50;;;11.50;93.00;;;;;;5067753;28;20039;-62
2021/11/07 00:22:07;;;;;;;9.93;6.28;;;11.50;93.00;;;;;;5066761;28;20185;-61
2021/11/07 00:24:59;;;;;;;8.52;5.57;;;11.50;93.00;;;;;;5052040;28;20036;-62
2021/11/07 00:27:53;;;;;;;9.15;5.50;;;11.40;93.00;;;;;;5063310;28;20032;-62
2021/11/07 00:30:52;;;;;;;8.30;5.25;;;11.40;93.00;;;;;;5069881;28;20127;-62
2021/11/07 00:36:28;;;;;;;7.90;5.60;;;11.40;93.00;;;;;;5056534;28;20036;-62
2021/11/07 00:39:20;;;;;;;7.93;4.90;;;11.40;93.10;;;;;;5052332;28;20040;-62
2021/11/07 00:42:19;;;;;;;7.80;4.93;;;11.40;93.10;;;;;;5064004;28;20118;-62
2021/11/07 00:45:13;;;;;;;9.95;5.40;;;11.40;93.10;;;;;;5070833;28;20028;-63
2021/11/07 00:50:58;;;;;;;9.45;6.25;;;11.30;93.10;;;;;;5056409;28;20083;-62
2021/11/07 00:54:02;;;;;;;10.43;6.15;;;11.30;93.20;;;;;;5064446;28;20043;-62
2021/11/07 00:56:53;;;;;;;9.32;6.00;;;11.30;93.20;;;;;;5070764;28;20036;-62
2021/11/07 00:59:47;;;;;;;9.30;5.85;;;11.30;93.10;;;;;;5059940;28;20409;-62
2021/11/07 01:02:37;;;;;;;11.00;7.22;;;11.30;93.20;;;;;;5059452;28;20086;-62
2021/11/07 01:05:26;;;;;;;11.23;6.57;;;11.20;93.10;;;;;;5057669;28;20114;-62
2021/11/07 01:08:11;;;;;;;10.80;6.90;;;11.20;93.20;;;;;;5070498;28;20035;-62
2021/11/07 01:10:57;;;;;;;9.35;6.68;;;11.10;93.10;;;;;;5055348;28;20055;-62
2021/11/07 01:13:42;;;;;;;10.35;6.80;;;11.10;93.20;;;;;;5056160;28;20400;-62
2021/11/07 01:16:27;;;;;;;9.18;6.50;;;11.10;93.20;;;;;;5067572;28;20039;-62
2021/11/07 01:19:11;;;;;;;9.82;6.90;;;11.00;93.20;;;;;;5068943;28;20440;-62
2021/11/07 01:21:58;;;;;;;12.27;6.43;;;10.90;93.20;;;;;;5056488;28;20040;-62
2021/11/07 01:24:52;;;;;;;10.32;6.30;;;10.90;93.30;;;;;;5067279;28;20397;-62
2021/11/07 01:27:41;;;;;;;11.05;6.40;;;10.90;93.40;;;;;;5072201;28;20511;-62
2021/11/07 01:30:28;;;;;;;8.95;6.15;;;10.90;93.40;;;;;;5074713;28;20058;-62
2021/11/07 01:33:18;;;;;;;9.02;5.93;;;10.90;93.50;;;;;;5058942;28;20535;-62
2021/11/07 01:39:39;;;;;;;8.18;5.68;;;10.80;93.50;;;;;;5063061;28;20071;-61
2021/11/07 01:42:17;;;;;;;7.65;5.15;;;10.80;93.80;;;;;;5072789;28;20184;-62
2021/11/07 01:45:10;;;;;;;8.57;5.82;;;10.70;93.60;;;;;;5073777;28;20059;-62
2021/11/07 01:48:06;;;;;;;8.05;5.07;;;10.70;93.70;;;;;;5071540;28;20035;-62
2021/11/07 01:50:56;;;;;;;12.15;6.60;;;10.70;93.70;;;;;;5067732;28;20116;-62
2021/11/07 01:53:41;;;;;;;8.98;6.15;;;10.70;93.80;;;;;;5067034;28;20426;-62
2021/11/07 01:56:25;;;;;;;9.73;6.20;;;10.70;93.90;;;;;;5054408;28;20094;-62
2021/11/07 01:59:09;;;;;;;10.27;5.63;;;10.60;93.90;;;;;;5061392;28;20043;-61
2021/11/07 02:01:58;;;;;;;10.45;6.50;;;10.70;93.90;;;;;;5072851;28;20035;-61
2021/11/07 02:04:44;;;;;;;8.57;5.85;;;10.70;93.90;;;;;;5062873;28;20032;-62
2021/11/07 02:07:28;;;;;;;10.13;5.80;;;10.70;93.90;;;;;;5054701;28;20048;-62
2021/11/07 02:10:16;;;;;;;10.10;6.15;;;10.70;93.90;;;;;;5069288;28;20051;-62
2021/11/07 02:13:00;;;;;;;8.23;5.40;;;10.80;93.90;;;;;;5064844;28;20040;-62
2021/11/07 02:15:46;;;;;;;8.82;5.72;;;10.80;94.00;;;;;;5072236;28;20531;-62
2021/11/07 02:18:30;;;;;;;10.63;6.47;;;10.80;93.90;;;;;;5072109;28;20118;-62
2021/11/07 02:21:14;;;;;;;10.23;6.35;;;10.80;93.90;;;;;;5059995;28;20435;-62
2021/11/07 02:24:00;;;;;;;11.48;6.57;;;10.80;94.00;;;;;;5060865;28;20078;-62
2021/11/07 02:26:58;;;;;;;8.93;5.80;;;10.80;94.00;;;;;;5071896;28;20039;-62
2021/11/07 02:29:42;;;;;;;10.07;5.65;;;10.80;94.00;;;;;;5071027;28;20121;-62
2021/11/07 02:32:27;;;;;;;9.40;6.22;;;10.80;94.00;;;;;;5067851;28;20435;-62
2021/11/07 02:35:12;;;;;;;8.07;5.47;;;10.80;94.00;;;;;;5067983;28;20054;-62
2021/11/07 02:37:57;;;;;;;12.07;6.32;;;10.90;94.00;;;;;;5054076;28;20497;-62
2021/11/07 02:40:41;;;;;;;7.93;5.53;;;10.90;94.00;;;;;;5053512;28;20048;-62
2021/11/07 02:43:25;;;;;;;9.27;5.75;;;10.90;93.90;;;;;;5054113;28;20079;-62
2021/11/07 02:46:17;;;;;;;7.65;5.25;;;10.80;93.90;;;;;;5056862;28;20035;-62
2021/11/07 02:49:05;;;;;;;16.75;6.00;;;10.90;94.00;;;;;;5071536;28;20035;-62
2021/11/07 02:51:49;;;;;;;7.60;5.25;;;10.90;94.00;;;;;;5063196;28;20060;-62
2021/11/07 02:54:34;;;;;;;10.98;5.20;;;10.90;93.90;;;;;;5053441;28;20547;-61
2021/11/07 02:57:20;;;;;;;8.60;5.15;;;11.00;94.00;;;;;;5057626;28;20504;-62
2021/11/07 03:00:10;;;;;;;10.88;5.28;;;10.90;94.00;;;;;;5056924;28;20393;-62
2021/11/07 03:02:54;;;;;;;8.85;5.35;;;10.90;94.00;;;;;;5069243;28;20316;-62
2021/11/07 03:05:38;;;;;;;7.95;5.10;;;10.90;93.90;;;;;;5052821;28;20064;-61
2021/11/07 03:08:22;;;;;;;7.55;5.25;;;10.90;93.90;;;;;;5066032;28;20054;-62
2021/11/07 03:11:07;;;;;;;8.40;5.38;;;11.00;93.90;;;;;;5062504;28;20454;-62
2021/11/07 03:13:51;;;;;;;6.43;4.53;;;11.00;93.90;;;;;;5057433;28;20036;-62
2021/11/07 03:16:35;;;;;;;7.25;4.47;;;11.00;93.90;;;;;;5064045;28;20404;-61
2021/11/07 03:19:22;;;;;;;9.20;4.93;;;11.00;94.10;;;;;;5062910;28;20048;-61
2021/11/07 03:22:20;;;;;;;7.25;4.68;;;11.00;93.90;;;;;;5062033;28;20043;-63
2021/11/07 03:25:06;;;;;;;8.05;5.20;;;11.00;93.80;;;;;;5062555;28;20809;-61
2021/11/07 03:27:51;;;;;;;9.07;5.65;;;11.10;93.80;;;;;;5072266;28;20385;-61
2021/11/07 03:33:44;;;;;;;7.88;4.50;;;11.00;93.80;;;;;;5066188;28;19988;-61
2021/11/07 03:36:32;;;;;;;8.27;5.13;;;11.00;94.00;;;;;;5064851;28;20035;-61
2021/11/07 03:39:17;;;;;;;7.82;5.07;;;10.90;93.80;;;;;;5067794;28;20531;-61
2021/11/07 03:42:06;;;;;;;7.60;5.00;;;10.90;93.90;;;;;;5052688;28;20113;-61
2021/11/07 03:44:51;;;;;;;6.80;4.63;;;10.90;93.90;;;;;;5066919;28;20502;-61
2021/11/07 03:47:35;;;;;;;8.98;5.38;;;10.90;94.00;;;;;;5071649;28;20035;-61
2021/11/07 03:50:20;;;;;;;7.88;5.03;;;11.00;94.20;;;;;;5063570;28;20110;-62
2021/11/07 03:53:04;;;;;;;6.78;4.28;;;10.90;93.90;;;;;;5055099;28;20087;-61
2021/11/07 03:55:49;;;;;;;7.15;4.47;;;11.00;94.00;;;;;;5070109;28;20121;-62
2021/11/07 03:58:33;;;;;;;9.13;4.95;;;11.00;93.90;;;;;;5066832;28;20210;-62
2021/11/07 04:01:18;;;;;;;7.30;4.72;;;11.00;93.90;;;;;;5055403;28;20577;-62
2021/11/07 04:04:05;;;;;;;6.32;4.93;;;11.00;93.90;;;;;;5063275;28;20047;-62
2021/11/07 04:06:50;;;;;;;8.60;4.97;;;11.10;94.00;;;;;;5059775;28;20534;-62
2021/11/07 04:09:34;;;;;;;6.28;4.18;;;11.00;94.00;;;;;;5058510;28;20056;-62
2021/11/07 04:12:19;;;;;;;7.35;4.78;;;11.00;94.10;;;;;;5076233;28;20099;-61
2021/11/07 04:15:04;;;;;;;7.65;4.82;;;11.10;94.10;;;;;;5053984;28;20036;-62
2021/11/07 04:17:49;;;;;;;;;;;11.00;94.10;;;;;;5059270;28;20079;-62
2021/11/07 04:20:33;;;;;;;11.50;5.15;;;11.10;94.10;;;;;;5052023;28;19955;-62
2021/11/07 04:23:17;;;;;;;9.05;4.70;;;11.00;94.30;;;;;;5066398;28;20112;-62
2021/11/07 04:26:02;;;;;;;7.90;4.80;;;11.00;94.40;;;;;;5072108;28;20094;-62
2021/11/07 04:28:46;;;;;;;8.35;5.38;;;11.00;94.60;;;;;;5053597;28;20043;-61
2021/11/07 04:31:31;;;;;;;8.00;5.13;;;11.00;94.70;;;;;;5051846;28;20150;-61
2021/11/07 04:34:15;;;;;;;7.85;5.80;;;10.90;94.80;;;;;;5062576;28;20078;-62
2021/11/07 04:37:02;;;;;;;7.40;4.90;;;11.00;94.90;;;;;;5068642;28;20115;-62
2021/11/07 04:39:46;;;;;;;7.38;4.50;;;11.00;94.90;;;;;;5055891;28;20098;-61
2021/11/07 04:42:31;;;;;;;7.57;5.20;;;10.90;95.00;;;;;;5060172;28;20078;-61
2021/11/07 04:45:16;;;;;;;7.68;4.50;;;10.90;95.00;;;;;;5065932;28;20060;-61
2021/11/07 04:48:02;;;;;;;7.28;4.95;;;11.00;95.00;;;;;;5068809;28;20039;-62
2021/11/07 04:50:48;;;;;;;8.35;5.00;;;11.00;95.00;;;;;;5051349;28;20102;-62
2021/11/07 04:53:32;;;;;;;8.77;4.95;;;11.00;95.00;;;;;;5051785;28;20063;-61
2021/11/07 04:56:16;;;;;;;6.78;4.38;;;11.00;95.00;;;;;;5051875;28;20044;-62
2021/11/07 04:59:00;;;;;;;8.30;4.60;;;11.10;95.10;;;;;;5067093;28;20051;-62
2021/11/07 05:01:45;;;;;;;6.00;3.95;;;11.00;95.10;;;;;;5070519;28;20102;-62
2021/11/07 05:04:29;;;;;;;7.68;4.13;;;11.10;95.10;;;;;;5057188;28;20087;-62
2021/11/07 05:07:13;;;;;;;6.47;4.40;;;11.10;95.10;;;;;;5060985;28;20047;-61
2021/11/07 05:09:57;;;;;;;6.80;4.20;;;11.10;95.10;;;;;;5070278;28;20142;-62
2021/11/07 05:12:41;;;;;;;5.90;4.20;;;11.10;95.10;;;;;;5070585;28;20044;-62
2021/11/07 05:15:25;;;;;;;7.05;4.47;;;11.10;95.10;;;;;;5067103;28;20098;-62
2021/11/07 05:18:09;;;;;;;7.78;4.13;;;11.10;95.10;;;;;;5059032;28;20047;-62
2021/11/07 05:20:54;;;;;;;8.05;4.28;;;11.10;95.10;;;;;;5071522;28;20032;-62
2021/11/07 05:23:38;;;;;;;6.45;4.32;;;11.10;95.30;;;;;;5068692;28;20048;-62
2021/11/07 05:26:22;;;;;;;7.45;4.47;;;11.10;95.00;;;;;;5062024;28;20048;-62
2021/11/07 05:29:06;;;;;;;7.43;4.65;;;11.20;95.00;;;;;;5058273;28;20043;-62
2021/11/07 05:31:50;;;;;;;5.97;3.90;;;11.10;95.00;;;;;;5065473;28;20044;-62
2021/11/07 05:34:36;;;;;;;6.65;4.20;;;11.10;95.00;;;;;;5064053;28;20063;-62
2021/11/07 05:37:20;;;;;;;6.13;3.85;;;11.20;95.00;;;;;;5061807;28;20036;-62
2021/11/07 05:40:07;;;;;;;6.50;4.40;;;11.20;95.00;;;;;;5067384;28;20043;-62
2021/11/07 05:42:52;;;;;;;6.88;4.10;;;11.20;94.90;;;;;;5053058;28;20044;-62
2021/11/07 05:45:36;;;;;;;7.07;4.13;;;11.20;94.90;;;;;;5051272;28;20136;-62
2021/11/07 05:48:20;;;;;;;5.85;3.90;;;11.20;94.80;;;;;;5051997;28;20040;-62
2021/11/07 05:51:05;;;;;;;6.45;4.20;;;11.20;94.80;;;;;;5052856;28;20045;-61
2021/11/07 05:53:50;;;;;;;5.40;3.35;;;11.20;94.80;;;;;;5058777;28;20062;-61
2021/11/07 05:56:35;;;;;;;5.22;3.70;;;11.20;94.70;;;;;;5054478;28;20096;-61
2021/11/07 05:59:19;;;;;;;5.07;3.28;;;11.30;94.80;;;;;;5054065;28;20514;-61
2021/11/07 06:02:03;;;;;;;6.70;3.67;;;11.30;94.70;;;;;;5064771;28;20094;-61
2021/11/07 06:04:48;;;;;;;7.95;3.63;;;11.30;94.70;;;;;;5058803;28;20040;-61
2021/11/07 06:07:33;;;;;;;;;;;11.30;94.80;;;;;;5055001;28;20100;-61
2021/11/07 06:10:17;;;;;;;6.25;3.50;;;11.30;94.70;;;;;;5072520;28;19942;-61
2021/11/07 06:13:02;;;;;;;6.43;3.47;;;11.30;94.70;;;;;;5073480;28;20510;-61
2021/11/07 06:15:46;;;;;;;4.97;3.25;;;11.30;94.80;;;;;;5060454;28;20086;-61
2021/11/07 06:18:30;;;;;;;4.82;3.53;;;11.40;94.70;;;;;;5057896;28;20122;-61
2021/11/07 06:21:15;;;;;;;5.35;3.42;;;11.30;94.70;;;;;;5056227;28;20086;-61
2021/11/07 06:23:59;;;;;;;5.43;3.88;;;11.40;94.70;;;;;;5059287;28;20044;-61
2021/11/07 06:26:43;;;;;;;5.45;3.70;;;11.40;94.70;;;;;;5072832;28;20506;-61
2021/11/07 06:29:27;;;;;;;4.80;3.50;;;11.40;94.60;;;;;;5070152;28;20043;-62
2021/11/07 06:32:12;;;;;;;5.35;3.35;;;11.40;94.70;;;;;;5054232;28;20044;-61
2021/11/07 06:34:56;;;;;;;6.25;3.58;;;11.50;94.70;;;;;;5071658;28;20059;-61
2021/11/07 06:37:42;;;;;;;6.78;3.85;;;11.50;94.70;;;;;;5073979;28;20609;-61
2021/11/07 06:40:26;;;;;;;6.40;3.88;;;11.50;94.70;;;;;;5054421;28;20095;-63
2021/11/07 06:43:10;;;;;;;6.40;3.92;;;11.50;94.80;;;;;;5070722;28;20036;-62
2021/11/07 06:45:54;;;;;;;6.95;3.50;;;11.50;94.90;;;;;;5072817;28;20035;-62
2021/11/07 06:48:38;;;;;;;6.10;4.20;;;11.50;95.00;;;;;;5066512;28;20095;-62
2021/11/07 06:51:22;;;;;;;5.15;3.35;;;11.50;95.20;;;;;;5067480;28;20047;-62
2021/11/07 06:54:06;;;;;;;6.95;4.03;;;11.50;95.30;;;;;;5065910;28;20090;-62
2021/11/07 06:56:50;;;;;;;6.15;3.88;;;11.60;95.50;;;;;;5072203;28;20384;-62
2021/11/07 06:59:34;;;;;;;5.87;3.83;;;11.50;95.60;;;;;;5062868;28;20039;-62
2021/11/07 07:02:18;;;;;;;7.05;4.13;;;11.50;95.90;;;;;;5064934;28;20420;-61
2021/11/07 07:05:03;;;;;;;6.47;4.45;;;11.50;95.80;;;;;;5070333;28;20101;-61
2021/11/07 07:07:51;;;;;;;6.63;4.07;;;11.50;95.90;;;;;;5069978;28;20450;-61
2021/11/07 07:10:46;;;;;;;7.15;3.88;;;11.40;96.00;;;;;;5060361;28;20054;-60
2021/11/07 07:13:44;;;;;;;6.13;4.03;;;11.40;96.10;;;;;;5054636;28;20079;-60
2021/11/07 07:19:25;;;;;;;6.07;4.00;;;11.40;96.20;;;;;;5055596;28;20449;-61
2021/11/07 07:33:39;;;;;;;9.75;5.20;;;11.50;96.20;;;;;;5052627;28;20043;-62
2021/11/07 07:36:23;;;;;;;7.50;4.50;;;11.40;96.10;;;;;;5048423;28;20094;-62
2021/11/07 07:38:49;;;;;;;7.35;4.55;;;11.40;96.20;;;;;;5049878;28;20032;-62
2021/11/07 07:41:14;;;;;;;7.57;4.72;;;11.50;96.20;;;;;;5055405;28;20029;-61
2021/11/07 07:43:40;;;;;;;6.20;3.97;;;11.50;96.20;;;;;;5055127;28;20040;-62
2021/11/07 07:46:26;;;;;;;7.32;5.13;;;11.50;96.20;;;;;;5051196;28;20835;-61
2021/11/07 07:49:16;;;;;;;10.15;4.45;;;11.50;96.20;;;;;;5053382;28;20032;-61
2021/11/07 07:52:00;;;;;;;7.45;4.65;;;11.50;96.30;;;;;;5056254;28;20119;-61
2021/11/07 07:54:45;;;;;;;5.53;3.90;;;11.50;96.30;;;;;;5055400;28;20468;-62
2021/11/07 07:57:29;;;;;;;7.28;4.38;;;11.50;96.30;;;;;;5052249;28;20035;-62
2021/11/07 08:00:15;;;;;;;7.13;4.43;;;11.50;96.40;;;;;;5059425;28;20052;-62
2021/11/07 08:02:59;;;;;;;6.22;4.30;;;11.50;96.50;;;;;;5052491;28;20116;-61
2021/11/07 08:05:43;;;;;;;8.05;3.88;;;11.60;96.60;;;;;;5063826;28;20090;-61
2021/11/07 08:08:28;;;;;;;6.95;3.97;;;11.60;96.60;;;;;;5057554;28;20195;-61
2021/11/07 08:11:11;;;;;;;8.75;4.78;;;11.60;96.60;;;;;;5052619;28;20044;-61
2021/11/07 08:13:56;;;;;;;8.68;4.88;;;11.60;96.60;;;;;;5065932;28;20032;-61
2021/11/07 08:16:40;;;;;;;11.63;4.68;;;11.70;96.70;;;;;;5054547;28;20551;-61
2021/11/07 08:19:25;;;;;;;9.00;5.13;;;11.70;96.60;;;;;;5055205;28;20055;-62
2021/11/07 08:22:09;;;;;;;7.88;4.70;;;11.70;96.70;;;;;;5055694;28;20421;-62
2021/11/07 08:24:53;;;;;;;6.75;4.40;;;11.70;96.60;;;;;;5051120;28;20044;-62
2021/11/07 08:27:43;;;;;;;7.65;4.68;;;11.70;96.70;;;;;;5056923;28;20048;-61
2021/11/07 08:30:11;;;;;;;6.65;4.45;;;11.70;96.70;;;;;;5060716;28;20071;-62
2021/11/07 08:32:36;;;;;;;6.50;4.20;;;11.70;96.70;;;;;;5058890;28;20025;-62
2021/11/07 08:35:03;;;;;;;6.55;4.50;;;11.80;96.70;;;;;;5053521;28;20106;-63
2021/11/07 08:37:34;;;;;;;7.60;4.88;;;11.80;96.70;;;;;;5052299;28;20036;-60
2021/11/07 08:40:04;;;;;;;7.82;4.63;;;11.90;96.70;;;;;;5059116;28;20025;-62
2021/11/07 08:42:33;;;;;;;7.28;4.40;;;12.00;96.70;;;;;;5051370;28;20090;-62
2021/11/07 09:01:41;;;;;;;6.95;3.85;;;12.20;96.30;;;;;;5050361;28;20037;-62
2021/11/07 09:04:24;;;;;;;8.40;4.55;;;12.20;96.30;;;;;;5048526;28;20062;-63
2021/11/07 09:09:20;;;;;;;6.32;3.97;;;12.30;96.20;;;;;;5052308;28;20108;-61
2021/11/07 09:11:57;;;;;;;6.47;4.15;;;12.40;96.20;;;;;;5058333;28;20068;-62
2021/11/07 09:14:30;;;;;;;6.15;3.92;;;12.40;96.20;;;;;;5048973;28;20366;-62
2021/11/07 09:16:57;;;;;;;9.80;4.97;;;12.50;96.10;;;;;;5052635;28;20036;-60
2021/11/07 09:19:25;;;;;;;5.60;3.58;;;12.50;96.10;;;;;;5049552;28;20525;-62
2021/11/07 09:21:58;;;;;;;7.68;3.70;;;12.60;96.00;;;;;;5054410;28;20029;-63
2021/11/07 09:24:28;;;;;;;6.25;3.53;;;12.60;96.00;;;;;;5059132;28;20043;-65
2021/11/07 09:26:55;;;;;;;6.78;3.70;;;12.60;95.90;;;;;;5058445;28;20035;-64
2021/11/07 09:29:43;;;;;;;8.00;3.60;;;12.60;95.80;;;;;;5055014;28;20029;-64
2021/11/07 09:32:31;;;;;;;6.88;3.22;;;12.60;95.80;;;;;;5057204;28;20029;-64
2021/11/07 09:35:15;;;;;;;5.55;2.90;;;12.60;95.70;;;;;;5057531;28;20055;-64
2021/11/07 09:40:30;;;;;;;6.90;2.83;;;12.70;95.60;;;;;;5053557;28;20029;-63
2021/11/07 09:45:42;;;;;;;6.35;3.05;;;12.70;95.50;;;;;;5056662;28;20032;-63
2021/11/07 09:48:15;;;;;;;5.07;2.33;;;12.70;95.60;;;;;;5054765;28;20028;-65
2021/11/07 09:50:41;;;;;;;4.18;2.70;;;12.80;95.80;;;;;;5057548;28;20067;-64
2021/11/07 09:53:08;;;;;;;4.43;2.60;;;12.80;95.50;;;;;;5049082;28;20039;-64
2021/11/07 09:55:33;;;;;;;5.90;2.90;;;12.80;95.50;;;;;;5055764;28;20116;-64
2021/11/07 09:58:00;;;;;;;5.60;3.33;;;12.90;95.50;;;;;;5058425;28;20023;-64
2021/11/07 10:00:29;;;;;;;5.35;2.15;;;12.90;95.40;;;;;;5052565;28;20033;-64
2021/11/07 10:02:55;;;;;;;5.88;2.45;;;12.90;95.30;;;;;;5059448;28;20046;-63
2021/11/07 10:05:24;;;;;;;7.47;3.30;;;13.00;95.30;;;;;;5053641;28;20045;-63
2021/11/07 10:08:05;;;;;;;5.47;2.22;;;13.00;95.30;;;;;;5058413;28;20020;-64
2021/11/07 10:10:36;;;;;;;5.45;3.10;;;13.00;95.20;;;;;;5053105;28;20154;-63
2021/11/07 10:13:13;;;;;;;4.85;2.92;;;13.00;95.20;;;;;;5051336;28;20037;-63
2021/11/07 10:15:51;;;;;;;5.03;2.42;;;13.00;95.20;;;;;;5053556;28;20055;-63
2021/11/07 10:18:25;;;;;;;4.50;2.42;;;13.00;95.20;;;;;;5056127;28;20059;-63
2021/11/07 10:20:55;;;;;;;4.68;2.65;;;13.10;95.10;;;;;;5054281;28;20025;-63
2021/11/07 10:23:31;;;;;;;5.68;3.35;;;13.20;95.10;;;;;;5059341;28;20033;-64
2021/11/07 10:26:17;;;;;;;6.03;2.33;;;13.20;95.00;;;;;;5053881;28;20154;-64
2021/11/07 10:28:48;;;;;;;5.60;2.60;;;13.30;94.90;;;;;;5053355;28;20115;-64
2021/11/07 10:31:32;;;;;;;6.53;2.20;;;13.30;94.80;;;;;;5051640;28;20045;-63
2021/11/07 10:34:22;;;;;;;6.28;2.20;;;13.40;94.90;;;;;;5060129;28;20169;-63
2021/11/07 10:42:14;;;;;;;5.28;2.40;;;13.50;94.60;;;;;;5053842;28;20114;-64
2021/11/07 10:52:47;;;;;;;5.28;2.75;;;13.50;94.30;;;;;;5055551;28;20195;-64
2021/11/07 10:55:22;;;;;;;5.82;2.60;;;13.40;94.20;;;;;;5054805;28;20080;-64
2021/11/07 10:57:54;;;;;;;6.28;2.78;;;13.40;94.20;;;;;;5054636;28;20031;-64
2021/11/07 11:00:41;;;;;;;5.57;2.60;;;13.40;94.20;;;;;;5051817;28;20033;-64
2021/11/07 11:03:19;;;;;;;4.90;2.42;;;13.40;94.10;;;;;;5067302;28;20032;-64
2021/11/07 11:05:50;;;;;;;5.30;2.70;;;13.30;94.20;;;;;;5054335;28;20033;-64
2021/11/07 11:08:21;;;;;;;3.88;2.65;;;13.30;94.50;;;;;;5058989;28;20488;-64
2021/11/07 11:11:01;;;;;;;6.43;3.00;;;13.20;94.70;;;;;;5058208;28;21402;-65
2021/11/07 11:13:53;;;;;;;7.53;3.25;;;13.10;94.90;;;;;;5052803;28;20041;-64
2021/11/07 11:16:34;;;;;;;6.45;3.03;;;13.10;95.20;;;;;;5052835;28;20072;-63
2021/11/07 11:19:30;;;;;;;6.75;3.17;;;13.00;95.50;;;;;;5052463;28;21855;-63
2021/11/07 11:25:46;;;;;;;6.75;3.33;;;12.80;95.70;;;;;;5050703;28;20090;-63
2021/11/07 11:28:10;;;;;;;5.35;2.30;;;12.70;96.10;;;;;;5048054;28;20038;-63
2021/11/07 11:33:48;;;;;;;3.08;1.60;;;12.40;95.80;;;;;;5056229;28;20036;-64
2021/11/07 11:36:25;;;;;;;4.15;1.73;;;12.40;95.80;;;;;;5051592;28;20029;-63
2021/11/07 11:39:04;;;;;;;3.40;1.55;;;12.30;95.90;;;;;;5056537;28;20037;-63
2021/11/07 11:41:40;;;;;;;7.00;2.22;;;12.30;95.80;;;;;;5060314;28;20380;-63
2021/11/07 11:44:06;;;;;;;4.30;1.80;;;12.20;95.80;;;;;;5060150;28;20052;-63
2021/11/07 11:46:46;;;;;;;11.02;2.55;;;12.20;95.90;;;;;;5061454;28;20509;-64
2021/11/07 11:49:47;;;;;;;6.43;2.03;;;12.00;95.80;;;;;;5060227;28;20036;-64
2021/11/07 11:52:38;;;;;;;3.88;2.05;;;11.90;95.80;;;;;;5051524;28;20036;-63
2021/11/07 11:57:56;;;;;;;2.92;1.33;;;11.80;96.00;;;;;;5051863;28;20039;-63
2021/11/07 12:00:39;;;;;;;5.28;1.50;;;11.70;96.10;;;;;;5053516;28;20024;-64
2021/11/07 12:08:11;;;;;;;4.40;1.80;;;11.70;96.40;;;;;;5054091;28;20044;-64
2021/11/07 12:10:43;;;;;;;4.88;1.90;;;11.70;96.50;;;;;;5058523;28;20041;-64
2021/11/07 12:13:53;;;;;;;7.72;2.22;;;11.80;96.60;;;;;;5057081;28;20095;-63
2021/11/07 12:16:52;;;;;;;4.13;2.15;;;11.70;96.70;;;;;;5065439;28;20451;-64
2021/11/07 12:19:22;;;;;;;4.72;1.90;;;11.70;96.80;;;;;;5052059;28;20029;-64
2021/11/07 12:21:48;;;;;;;5.57;2.30;;;11.70;96.90;;;;;;5064095;28;20385;-64
2021/11/07 12:24:17;;;;;;;7.93;2.65;;;11.70;97.00;;;;;;5058323;28;20032;-64
2021/11/07 12:26:42;;;;;;;5.13;2.50;;;11.70;97.10;;;;;;5061280;28;20487;-63
2021/11/07 12:29:08;;;;;;;6.72;3.00;;;11.70;97.20;;;;;;5056840;28;20037;-64
2021/11/07 12:31:34;;;;;;;6.53;2.40;;;11.70;97.30;;;;;;5051578;28;20473;-64
2021/11/07 12:34:25;;;;;;;4.85;2.50;;;11.70;97.40;;;;;;5062171;28;20046;-63
2021/11/07 12:42:29;;;;;;;6.07;2.85;;;11.80;97.50;;;;;;5050525;28;20505;-63
2021/11/07 12:45:24;;;;;;;6.03;2.35;;;11.80;97.50;;;;;;5051270;28;20221;-63
2021/11/07 12:47:50;;;;;;;5.20;2.45;;;11.90;97.60;;;;;;5056205;28;20452;-63
2021/11/07 12:50:16;;;;;;;7.68;2.78;;;11.90;97.60;;;;;;5071395;28;20492;-63
2021/11/07 12:52:56;;;;;;;6.25;2.38;;;12.00;97.60;;;;;;5069821;28;20020;-64
2021/11/07 12:55:31;;;;;;;6.55;2.67;;;12.00;97.70;;;;;;5071196;28;20585;-63
2021/11/07 12:57:57;;;;;;;4.35;2.78;;;12.00;97.60;;;;;;5071033;28;20029;-63
2021/11/07 13:00:23;;;;;;;9.02;2.70;;;12.00;97.50;;;;;;5057393;28;20029;-63
2021/11/07 13:02:48;;;;;;;6.85;2.60;;;12.00;97.50;;;;;;5047723;28;20053;-63
2021/11/07 13:05:18;;;;;;;5.38;2.60;;;12.10;97.50;;;;;;5052404;28;20563;-64
2021/11/07 13:07:59;;;;;;;4.50;2.10;;;12.10;97.40;;;;;;5053497;28;20415;-63
2021/11/07 13:10:57;;;;;;;4.85;2.47;;;12.10;97.40;;;;;;5056821;28;20408;-64
2021/11/07 13:13:31;;;;;;;6.03;2.10;;;12.10;97.40;;;;;;5058835;28;20559;-63
2021/11/07 13:23:58;;;;;;;5.72;2.40;;;12.10;97.20;;;;;;5048148;28;20519;-64
2021/11/07 13:26:38;;;;;;;9.93;2.60;;;12.00;97.10;;;;;;5053166;28;20033;-63
2021/11/07 13:32:00;;;;;;;5.88;2.15;;;12.00;97.00;;;;;;5046524;28;20098;-63
2021/11/07 13:34:27;;;;;;;7.30;2.40;;;11.90;96.90;;;;;;5047659;28;20500;-64
2021/11/07 13:36:55;;;;;;;5.45;2.08;;;11.90;96.90;;;;;;5046830;28;20114;-63
2021/11/07 13:39:29;;;;;;;6.85;2.38;;;11.90;97.00;;;;;;5046751;28;20493;-64
2021/11/07 13:42:14;;;;;;;8.63;2.92;;;12.00;97.00;;;;;;5055362;28;20029;-63
2021/11/07 13:44:58;;;;;;;8.50;3.15;;;12.00;96.90;;;;;;5048831;28;20049;-63
2021/11/07 13:47:32;;;;;;;5.90;2.20;;;12.00;96.80;;;;;;5045194;28;20032;-63
2021/11/07 13:49:59;;;;;;;8.45;2.65;;;12.00;96.80;;;;;;5045652;28;20051;-63
2021/11/07 13:52:35;;;;;;;9.60;3.97;;;12.00;96.70;;;;;;5046503;28;20051;-64
2021/11/07 13:55:01;;;;;;;7.15;2.63;;;12.00;96.60;;;;;;5056584;28;20055;-64
2021/11/07 13:57:31;;;;;;;8.80;3.03;;;12.00;96.60;;;;;;5046455;28;20059;-64
2021/11/07 13:59:58;;;;;;;29.92;3.47;;;12.00;96.50;;;;;;5048420;28;20069;-64
2021/11/07 14:02:25;;;;;;;9.73;3.10;;;12.00;96.50;;;;;;5047740;28;20469;-64
2021/11/07 14:04:57;;;;;;;8.85;2.85;;;12.00;96.50;;;;;;5049973;28;20378;-63
2021/11/07 14:07:32;;;;;;;8.32;2.58;;;12.00;96.70;;;;;;5057408;28;20028;-63
2021/11/07 14:10:07;;;;;;;7.28;2.38;;;11.90;96.70;;;;;;5049346;28;20044;-64
2021/11/07 14:12:42;;;;;;;9.60;2.55;;;11.90;96.70;;;;;;5051429;28;20120;-64
2021/11/07 14:15:17;;;;;;;12.00;2.80;;;11.90;96.90;;;;;;5053348;28;20067;-63
2021/11/07 14:17:45;;;;;;;8.27;3.83;;;11.90;96.90;;;;;;5052989;28;20489;-63
2021/11/07 14:20:13;;;;;;;8.45;2.88;;;11.80;96.90;;;;;;5052980;28;20116;-64
2021/11/07 14:23:00;;;;;;;8.40;3.08;;;11.80;97.00;;;;;;5067094;28;20037;-64
2021/11/07 14:25:25;;;;;;;10.27;4.28;;;11.80;97.00;;;;;;5053073;28;20131;-64
2021/11/07 14:27:57;;;;;;;10.93;3.92;;;11.80;97.00;;;;;;5053411;28;20020;-64
2021/11/07 14:30:35;;;;;;;8.00;2.65;;;11.70;97.00;;;;;;5058066;28;20033;-63
2021/11/07 14:33:09;;;;;;;10.50;2.70;;;11.70;97.10;;;;;;5051868;28;20029;-64
2021/11/07 14:35:35;;;;;;;8.50;3.05;;;11.70;97.10;;;;;;5053385;28;20041;-65
2021/11/07 14:38:07;;;;;;;13.10;3.92;;;11.60;97.10;;;;;;5053585;28;20033;-65
2021/11/07 14:40:48;;;;;;;10.02;2.78;;;11.60;97.20;;;;;;5053347;28;20393;-64
2021/11/07 14:48:42;;;;;;;9.18;2.53;;;11.70;97.30;;;;;;5054940;28;20055;-65
2021/11/07 14:51:21;;;;;;;8.48;3.00;;;11.70;97.30;;;;;;5051864;28;20045;-65
2021/11/07 14:54:24;;;;;;;15.60;3.28;;;11.60;97.20;;;;;;5052317;28;20069;-65
2021/11/07 14:59:47;;;;;;;6.53;2.45;;;11.60;97.20;;;;;;5054922;28;20199;-63
2021/11/07 15:05:30;;;;;;;6.40;2.15;;;11.60;97.00;;;;;;5059125;28;20036;-64
2021/11/07 15:08:27;;;;;;;8.55;2.25;;;11.50;96.90;;;;;;5056522;28;20021;-64
2021/11/07 15:13:35;;;;;;;7.80;2.58;;;11.40;97.10;;;;;;5058840;28;20064;-63
2021/11/07 15:21:05;;;;;;;8.52;2.70;;;11.30;97.00;;;;;;5056495;28;20027;-63
2021/11/07 15:23:39;;;;;;;10.38;3.20;;;11.20;97.00;;;;;;5057441;28;20033;-65
2021/11/07 15:26:15;;;;;;;7.32;3.70;;;11.10;97.00;;;;;;5060918;28;20041;-64
2021/11/07 15:28:41;;;;;;;8.98;3.50;;;11.10;97.10;;;;;;5052425;28;20045;-64
2021/11/07 15:31:17;;;;;;;5.55;2.53;;;11.00;97.10;;;;;;5060645;28;20033;-64
2021/11/07 15:33:44;;;;;;;8.68;3.65;;;11.00;97.10;;;;;;5049691;28;20107;-64
2021/11/07 15:36:10;;;;;;;12.40;3.63;;;11.00;97.10;;;;;;5056132;28;20048;-64
2021/11/07 15:38:36;;;;;;;8.02;3.22;;;11.00;97.10;;;;;;5053235;28;20021;-65
2021/11/07 15:41:07;;;;;;;8.93;2.95;;;10.90;97.10;;;;;;5053656;28;20028;-65
2021/11/07 15:43:33;;;;;;;6.93;2.90;;;10.90;97.20;;;;;;5053007;28;20079;-65
2021/11/07 15:46:09;;;;;;;10.30;3.38;;;10.80;97.10;;;;;;5053989;28;20484;-64
2021/11/07 15:48:55;;;;;;;8.00;3.25;;;10.80;97.20;;;;;;5049230;28;20037;-65
2021/11/07 15:51:33;;;;;;;9.60;3.05;;;10.70;97.20;;;;;;5050866;28;20030;-65